Terminal Aerodrome Forecast
Issued by NWS

Home | Current Version | Previous Version | Text Only | Print | Product List | Glossary On
Versions: 1 2 3 4 5 6 7 8 9 10 11 12 13 14 15 16 17 18
000
FTUS43 KOAX 312320
TAFCDR
TAF
KCDR 312320Z 0100/0124 11005KT 6SM HZ VCTS BKN100CB
      TEMPO 0101/0105 VRB15G25KT 6SM -TSRA OVC100CB
     FM010600 VRB03KT 6SM HZ SCT100
     FM011800 20008KT P6SM SCT080=

USA.gov is the U.S. government's official web portal to all federal, state and local government web resources and services.